sensor_id;sensor_type;location;lat;lon;timestamp;P1;durP1;ratioP1;P2;durP2;ratioP2
74074;SDS011;62428;51.412;5.432;2023-04-03T00:01:07;5.87;;;2.50;;
74074;SDS011;62428;51.412;5.432;2023-04-03T00:03:32;3.90;;;2.50;;
74074;SDS011;62428;51.412;5.432;2023-04-03T00:05:58;4.47;;;2.67;;
74074;SDS011;62428;51.412;5.432;2023-04-03T00:08:24;8.80;;;2.80;;
74074;SDS011;62428;51.412;5.432;2023-04-03T00:10:49;7.70;;;3.27;;
74074;SDS011;62428;51.412;5.432;2023-04-03T00:13:15;4.20;;;2.43;;
74074;SDS011;62428;51.412;5.432;2023-04-03T00:15:40;5.97;;;2.60;;
74074;SDS011;62428;51.412;5.432;2023-04-03T00:18:06;5.43;;;3.00;;
74074;SDS011;62428;51.412;5.432;2023-04-03T00:20:34;6.20;;;2.38;;
74074;SDS011;62428;51.412;5.432;2023-04-03T00:23:00;7.87;;;2.90;;
74074;SDS011;62428;51.412;5.432;2023-04-03T00:25:26;7.18;;;2.75;;
74074;SDS011;62428;51.412;5.432;2023-04-03T00:27:51;5.78;;;2.70;;
74074;SDS011;62428;51.412;5.432;2023-04-03T00:30:17;6.17;;;2.60;;
74074;SDS011;62428;51.412;5.432;2023-04-03T00:32:45;6.47;;;2.78;;
74074;SDS011;62428;51.412;5.432;2023-04-03T00:35:12;8.75;;;3.20;;
74074;SDS011;62428;51.412;5.432;2023-04-03T00:37:40;7.97;;;2.80;;
74074;SDS011;62428;51.412;5.432;2023-04-03T00:40:06;5.22;;;2.38;;
74074;SDS011;62428;51.412;5.432;2023-04-03T00:42:32;7.47;;;2.75;;
74074;SDS011;62428;51.412;5.432;2023-04-03T00:47:23;7.90;;;3.00;;
74074;SDS011;62428;51.412;5.432;2023-04-03T00:49:49;5.35;;;2.85;;
74074;SDS011;62428;51.412;5.432;2023-04-03T00:52:17;6.33;;;2.80;;
74074;SDS011;62428;51.412;5.432;2023-04-03T00:54:47;4.70;;;2.80;;
74074;SDS011;62428;51.412;5.432;2023-04-03T00:57:15;5.45;;;2.70;;
74074;SDS011;62428;51.412;5.432;2023-04-03T00:59:48;5.15;;;2.22;;
74074;SDS011;62428;51.412;5.432;2023-04-03T01:02:16;5.80;;;2.67;;
74074;SDS011;62428;51.412;5.432;2023-04-03T01:04:42;6.60;;;3.10;;
74074;SDS011;62428;51.412;5.432;2023-04-03T01:07:11;7.57;;;3.08;;
74074;SDS011;62428;51.412;5.432;2023-04-03T01:09:40;4.67;;;2.70;;
74074;SDS011;62428;51.412;5.432;2023-04-03T01:14:42;8.27;;;3.10;;
74074;SDS011;62428;51.412;5.432;2023-04-03T01:25:39;4.43;;;2.35;;
74074;SDS011;62428;51.412;5.432;2023-04-03T01:28:06;5.82;;;2.75;;
74074;SDS011;62428;51.412;5.432;2023-04-03T01:30:39;5.85;;;2.42;;
74074;SDS011;62428;51.412;5.432;2023-04-03T01:33:11;7.43;;;2.97;;
74074;SDS011;62428;51.412;5.432;2023-04-03T01:35:37;5.07;;;2.60;;
74074;SDS011;62428;51.412;5.432;2023-04-03T01:38:02;5.90;;;2.70;;
74074;SDS011;62428;51.412;5.432;2023-04-03T01:40:28;6.10;;;3.07;;
74074;SDS011;62428;51.412;5.432;2023-04-03T01:42:53;4.93;;;2.50;;
74074;SDS011;62428;51.412;5.432;2023-04-03T01:45:18;6.57;;;2.70;;
74074;SDS011;62428;51.412;5.432;2023-04-03T01:47:44;8.53;;;3.07;;
74074;SDS011;62428;51.412;5.432;2023-04-03T01:50:10;7.30;;;3.20;;
74074;SDS011;62428;51.412;5.432;2023-04-03T01:52:35;5.00;;;2.92;;
74074;SDS011;62428;51.412;5.432;2023-04-03T01:55:00;7.53;;;3.47;;
74074;SDS011;62428;51.412;5.432;2023-04-03T01:57:26;4.80;;;3.13;;
74074;SDS011;62428;51.412;5.432;2023-04-03T01:59:51;4.27;;;2.50;;
74074;SDS011;62428;51.412;5.432;2023-04-03T02:02:16;5.97;;;3.20;;
74074;SDS011;62428;51.412;5.432;2023-04-03T02:04:42;6.70;;;3.60;;
74074;SDS011;62428;51.412;5.432;2023-04-03T02:07:07;4.90;;;2.90;;
74074;SDS011;62428;51.412;5.432;2023-04-03T02:09:33;6.95;;;2.97;;
74074;SDS011;62428;51.412;5.432;2023-04-03T02:11:58;6.70;;;3.40;;
74074;SDS011;62428;51.412;5.432;2023-04-03T02:14:23;6.00;;;2.93;;
74074;SDS011;62428;51.412;5.432;2023-04-03T02:16:49;5.70;;;2.90;;
74074;SDS011;62428;51.412;5.432;2023-04-03T02:19:15;5.85;;;3.15;;
74074;SDS011;62428;51.412;5.432;2023-04-03T02:21:40;6.70;;;2.80;;
74074;SDS011;62428;51.412;5.432;2023-04-03T02:24:06;6.70;;;3.10;;
74074;SDS011;62428;51.412;5.432;2023-04-03T02:26:31;5.53;;;2.90;;
74074;SDS011;62428;51.412;5.432;2023-04-03T02:28:57;4.57;;;3.00;;
74074;SDS011;62428;51.412;5.432;2023-04-03T02:31:22;5.20;;;3.17;;
74074;SDS011;62428;51.412;5.432;2023-04-03T02:33:48;5.05;;;2.95;;
74074;SDS011;62428;51.412;5.432;2023-04-03T02:36:14;6.53;;;2.77;;
74074;SDS011;62428;51.412;5.432;2023-04-03T02:38:39;5.67;;;2.70;;
74074;SDS011;62428;51.412;5.432;2023-04-03T02:41:06;7.00;;;2.80;;
74074;SDS011;62428;51.412;5.432;2023-04-03T02:43:33;7.85;;;2.85;;
74074;SDS011;62428;51.412;5.432;2023-04-03T02:45:59;4.95;;;2.72;;
74074;SDS011;62428;51.412;5.432;2023-04-03T02:48:25;8.55;;;3.08;;
74074;SDS011;62428;51.412;5.432;2023-04-03T02:50:51;5.60;;;2.60;;
74074;SDS011;62428;51.412;5.432;2023-04-03T02:53:16;7.22;;;2.67;;
74074;SDS011;62428;51.412;5.432;2023-04-03T02:55:42;5.80;;;2.43;;
74074;SDS011;62428;51.412;5.432;2023-04-03T02:58:08;5.57;;;2.78;;
74074;SDS011;62428;51.412;5.432;2023-04-03T03:00:34;6.20;;;2.47;;
74074;SDS011;62428;51.412;5.432;2023-04-03T03:02:59;6.32;;;2.50;;
74074;SDS011;62428;51.412;5.432;2023-04-03T03:05:25;7.07;;;2.77;;
74074;SDS011;62428;51.412;5.432;2023-04-03T03:07:51;13.47;;;2.70;;
74074;SDS011;62428;51.412;5.432;2023-04-03T03:10:16;9.07;;;2.70;;
74074;SDS011;62428;51.412;5.432;2023-04-03T03:12:42;6.33;;;2.07;;
74074;SDS011;62428;51.412;5.432;2023-04-03T03:15:07;4.47;;;2.10;;
74074;SDS011;62428;51.412;5.432;2023-04-03T03:17:33;4.90;;;2.20;;
74074;SDS011;62428;51.412;5.432;2023-04-03T03:19:59;5.43;;;2.40;;
74074;SDS011;62428;51.412;5.432;2023-04-03T03:22:25;8.93;;;2.77;;
74074;SDS011;62428;51.412;5.432;2023-04-03T03:24:51;4.63;;;1.98;;
74074;SDS011;62428;51.412;5.432;2023-04-03T03:27:16;6.87;;;2.10;;
74074;SDS011;62428;51.412;5.432;2023-04-03T03:29:42;8.00;;;2.80;;
74074;SDS011;62428;51.412;5.432;2023-04-03T03:32:07;5.82;;;2.20;;
74074;SDS011;62428;51.412;5.432;2023-04-03T03:34:33;5.10;;;2.40;;
74074;SDS011;62428;51.412;5.432;2023-04-03T03:36:58;6.43;;;2.30;;
74074;SDS011;62428;51.412;5.432;2023-04-03T03:39:24;5.72;;;2.40;;
74074;SDS011;62428;51.412;5.432;2023-04-03T03:41:49;8.23;;;2.47;;
74074;SDS011;62428;51.412;5.432;2023-04-03T03:44:15;6.27;;;2.33;;
74074;SDS011;62428;51.412;5.432;2023-04-03T03:46:40;7.20;;;2.15;;
74074;SDS011;62428;51.412;5.432;2023-04-03T03:49:06;6.33;;;2.10;;
74074;SDS011;62428;51.412;5.432;2023-04-03T03:51:31;4.23;;;1.80;;
74074;SDS011;62428;51.412;5.432;2023-04-03T03:53:56;4.17;;;1.80;;
74074;SDS011;62428;51.412;5.432;2023-04-03T03:56:22;8.37;;;2.33;;
74074;SDS011;62428;51.412;5.432;2023-04-03T03:58:47;4.70;;;2.57;;
74074;SDS011;62428;51.412;5.432;2023-04-03T04:01:14;7.20;;;2.33;;
74074;SDS011;62428;51.412;5.432;2023-04-03T04:03:40;5.05;;;2.17;;
74074;SDS011;62428;51.412;5.432;2023-04-03T04:06:06;5.67;;;2.07;;
74074;SDS011;62428;51.412;5.432;2023-04-03T04:08:31;8.00;;;2.15;;
74074;SDS011;62428;51.412;5.432;2023-04-03T04:10:56;10.85;;;2.15;;
74074;SDS011;62428;51.412;5.432;2023-04-03T04:13:22;7.20;;;2.50;;
74074;SDS011;62428;51.412;5.432;2023-04-03T04:15:47;4.60;;;2.27;;
74074;SDS011;62428;51.412;5.432;2023-04-03T04:18:13;5.77;;;1.83;;
74074;SDS011;62428;51.412;5.432;2023-04-03T04:20:38;5.13;;;1.90;;
74074;SDS011;62428;51.412;5.432;2023-04-03T04:23:04;7.32;;;1.80;;
74074;SDS011;62428;51.412;5.432;2023-04-03T04:25:30;5.57;;;1.93;;
74074;SDS011;62428;51.412;5.432;2023-04-03T04:27:55;4.03;;;1.60;;
74074;SDS011;62428;51.412;5.432;2023-04-03T04:30:20;5.37;;;1.57;;
74074;SDS011;62428;51.412;5.432;2023-04-03T04:32:46;4.30;;;1.50;;
74074;SDS011;62428;51.412;5.432;2023-04-03T04:35:11;8.25;;;1.80;;
74074;SDS011;62428;51.412;5.432;2023-04-03T04:37:37;5.23;;;1.50;;
74074;SDS011;62428;51.412;5.432;2023-04-03T04:40:02;5.80;;;1.80;;
74074;SDS011;62428;51.412;5.432;2023-04-03T04:42:28;7.77;;;1.33;;
74074;SDS011;62428;51.412;5.432;2023-04-03T04:44:53;6.37;;;1.63;;
74074;SDS011;62428;51.412;5.432;2023-04-03T04:47:19;4.50;;;1.60;;
74074;SDS011;62428;51.412;5.432;2023-04-03T04:49:44;4.03;;;1.23;;
74074;SDS011;62428;51.412;5.432;2023-04-03T04:52:10;3.37;;;1.57;;
74074;SDS011;62428;51.412;5.432;2023-04-03T04:54:35;2.53;;;1.20;;
74074;SDS011;62428;51.412;5.432;2023-04-03T04:57:01;5.77;;;1.47;;
74074;SDS011;62428;51.412;5.432;2023-04-03T04:59:26;5.57;;;1.47;;
74074;SDS011;62428;51.412;5.432;2023-04-03T05:01:51;2.92;;;1.05;;
74074;SDS011;62428;51.412;5.432;2023-04-03T05:04:17;4.72;;;1.10;;
74074;SDS011;62428;51.412;5.432;2023-04-03T05:06:42;6.40;;;1.57;;
74074;SDS011;62428;51.412;5.432;2023-04-03T05:09:07;8.43;;;1.30;;
74074;SDS011;62428;51.412;5.432;2023-04-03T05:11:34;2.00;;;0.90;;
74074;SDS011;62428;51.412;5.432;2023-04-03T05:14:00;8.10;;;1.23;;
74074;SDS011;62428;51.412;5.432;2023-04-03T05:16:25;3.00;;;1.00;;
74074;SDS011;62428;51.412;5.432;2023-04-03T05:18:51;3.75;;;1.13;;
74074;SDS011;62428;51.412;5.432;2023-04-03T05:21:16;4.82;;;0.90;;
74074;SDS011;62428;51.412;5.432;2023-04-03T05:23:43;4.00;;;1.20;;
74074;SDS011;62428;51.412;5.432;2023-04-03T05:26:08;3.97;;;1.00;;
74074;SDS011;62428;51.412;5.432;2023-04-03T05:28:34;2.47;;;0.90;;
74074;SDS011;62428;51.412;5.432;2023-04-03T05:30:59;5.67;;;1.00;;
74074;SDS011;62428;51.412;5.432;2023-04-03T05:33:25;2.80;;;0.93;;
74074;SDS011;62428;51.412;5.432;2023-04-03T05:35:51;3.28;;;0.88;;
74074;SDS011;62428;51.412;5.432;2023-04-03T05:38:17;3.40;;;1.00;;
74074;SDS011;62428;51.412;5.432;2023-04-03T05:40:42;3.37;;;0.90;;
74074;SDS011;62428;51.412;5.432;2023-04-03T05:43:07;4.60;;;1.00;;
74074;SDS011;62428;51.412;5.432;2023-04-03T05:45:33;6.60;;;1.10;;
74074;SDS011;62428;51.412;5.432;2023-04-03T05:47:58;2.20;;;0.80;;
74074;SDS011;62428;51.412;5.432;2023-04-03T05:50:23;5.53;;;1.03;;
74074;SDS011;62428;51.412;5.432;2023-04-03T05:52:49;4.57;;;0.90;;
74074;SDS011;62428;51.412;5.432;2023-04-03T05:55:16;4.67;;;1.07;;
74074;SDS011;62428;51.412;5.432;2023-04-03T05:57:42;2.92;;;0.93;;
74074;SDS011;62428;51.412;5.432;2023-04-03T06:00:08;4.80;;;1.00;;
74074;SDS011;62428;51.412;5.432;2023-04-03T06:02:37;3.45;;;1.00;;
74074;SDS011;62428;51.412;5.432;2023-04-03T06:05:03;7.20;;;1.10;;
74074;SDS011;62428;51.412;5.432;2023-04-03T06:07:28;2.63;;;0.70;;
74074;SDS011;62428;51.412;5.432;2023-04-03T06:09:54;4.50;;;0.90;;
74074;SDS011;62428;51.412;5.432;2023-04-03T06:12:21;3.00;;;0.73;;
74074;SDS011;62428;51.412;5.432;2023-04-03T06:14:47;1.60;;;0.70;;
74074;SDS011;62428;51.412;5.432;2023-04-03T06:17:14;4.53;;;1.08;;
74074;SDS011;62428;51.412;5.432;2023-04-03T06:19:40;3.70;;;0.90;;
74074;SDS011;62428;51.412;5.432;2023-04-03T06:22:06;4.03;;;0.87;;
74074;SDS011;62428;51.412;5.432;2023-04-03T06:24:31;3.27;;;1.20;;
74074;SDS011;62428;51.412;5.432;2023-04-03T06:26:57;3.10;;;0.70;;
74074;SDS011;62428;51.412;5.432;2023-04-03T06:29:23;5.47;;;1.40;;
74074;SDS011;62428;51.412;5.432;2023-04-03T06:31:49;3.75;;;1.13;;
74074;SDS011;62428;51.412;5.432;2023-04-03T06:34:15;4.67;;;1.20;;
74074;SDS011;62428;51.412;5.432;2023-04-03T06:36:41;3.63;;;1.05;;
74074;SDS011;62428;51.412;5.432;2023-04-03T06:39:08;6.13;;;1.10;;
74074;SDS011;62428;51.412;5.432;2023-04-03T06:41:38;3.78;;;1.08;;
74074;SDS011;62428;51.412;5.432;2023-04-03T06:44:03;5.07;;;1.13;;
74074;SDS011;62428;51.412;5.432;2023-04-03T06:46:29;2.83;;;0.95;;
74074;SDS011;62428;51.412;5.432;2023-04-03T06:48:54;4.75;;;0.90;;
74074;SDS011;62428;51.412;5.432;2023-04-03T06:51:26;2.60;;;0.90;;
74074;SDS011;62428;51.412;5.432;2023-04-03T06:53:54;8.55;;;0.80;;
74074;SDS011;62428;51.412;5.432;2023-04-03T06:56:21;3.92;;;0.75;;
74074;SDS011;62428;51.412;5.432;2023-04-03T06:58:47;4.23;;;1.00;;
74074;SDS011;62428;51.412;5.432;2023-04-03T07:01:14;3.67;;;0.75;;
74074;SDS011;62428;51.412;5.432;2023-04-03T07:03:41;3.67;;;1.08;;
74074;SDS011;62428;51.412;5.432;2023-04-03T07:06:07;3.67;;;0.60;;
74074;SDS011;62428;51.412;5.432;2023-04-03T07:08:35;6.50;;;1.00;;
74074;SDS011;62428;51.412;5.432;2023-04-03T07:11:01;3.90;;;0.50;;
74074;SDS011;62428;51.412;5.432;2023-04-03T07:13:27;7.85;;;0.90;;
74074;SDS011;62428;51.412;5.432;2023-04-03T07:15:52;2.87;;;0.77;;
74074;SDS011;62428;51.412;5.432;2023-04-03T07:18:18;3.67;;;0.90;;
74074;SDS011;62428;51.412;5.432;2023-04-03T07:20:44;1.70;;;0.53;;
74074;SDS011;62428;51.412;5.432;2023-04-03T07:23:09;5.10;;;0.70;;
74074;SDS011;62428;51.412;5.432;2023-04-03T07:25:35;3.10;;;0.80;;
74074;SDS011;62428;51.412;5.432;2023-04-03T07:28:01;4.55;;;0.88;;
74074;SDS011;62428;51.412;5.432;2023-04-03T07:30:27;3.40;;;0.60;;
74074;SDS011;62428;51.412;5.432;2023-04-03T07:32:52;6.13;;;0.90;;
74074;SDS011;62428;51.412;5.432;2023-04-03T07:35:18;5.72;;;0.60;;
74074;SDS011;62428;51.412;5.432;2023-04-03T07:37:44;6.60;;;1.00;;
74074;SDS011;62428;51.412;5.432;2023-04-03T07:40:10;3.17;;;0.65;;
74074;SDS011;62428;51.412;5.432;2023-04-03T07:42:35;6.60;;;0.80;;
74074;SDS011;62428;51.412;5.432;2023-04-03T07:45:01;5.60;;;0.80;;
74074;SDS011;62428;51.412;5.432;2023-04-03T07:47:28;3.27;;;0.70;;
74074;SDS011;62428;51.412;5.432;2023-04-03T07:49:53;3.10;;;0.77;;
74074;SDS011;62428;51.412;5.432;2023-04-03T07:52:18;4.10;;;0.77;;
74074;SDS011;62428;51.412;5.432;2023-04-03T07:54:44;2.27;;;0.60;;
74074;SDS011;62428;51.412;5.432;2023-04-03T07:57:09;2.63;;;0.73;;
74074;SDS011;62428;51.412;5.432;2023-04-03T07:59:35;11.68;;;0.60;;
74074;SDS011;62428;51.412;5.432;2023-04-03T08:02:00;3.13;;;0.40;;
74074;SDS011;62428;51.412;5.432;2023-04-03T08:04:26;5.60;;;0.68;;
74074;SDS011;62428;51.412;5.432;2023-04-03T08:06:52;2.85;;;0.50;;
74074;SDS011;62428;51.412;5.432;2023-04-03T08:09:17;4.23;;;0.90;;
74074;SDS011;62428;51.412;5.432;2023-04-03T08:11:44;4.00;;;1.05;;
74074;SDS011;62428;51.412;5.432;2023-04-03T08:14:10;5.07;;;0.93;;
74074;SDS011;62428;51.412;5.432;2023-04-03T08:16:41;5.93;;;0.98;;
74074;SDS011;62428;51.412;5.432;2023-04-03T08:19:07;6.78;;;0.80;;
74074;SDS011;62428;51.412;5.432;2023-04-03T08:21:33;4.07;;;1.40;;
74074;SDS011;62428;51.412;5.432;2023-04-03T08:23:58;4.53;;;0.70;;
74074;SDS011;62428;51.412;5.432;2023-04-03T08:26:24;4.88;;;1.00;;
74074;SDS011;62428;51.412;5.432;2023-04-03T08:28:51;2.25;;;0.63;;
74074;SDS011;62428;51.412;5.432;2023-04-03T08:31:17;5.40;;;0.57;;
74074;SDS011;62428;51.412;5.432;2023-04-03T08:33:44;2.60;;;0.45;;
74074;SDS011;62428;51.412;5.432;2023-04-03T08:36:20;4.30;;;0.60;;
74074;SDS011;62428;51.412;5.432;2023-04-03T08:38:50;4.05;;;0.73;;
74074;SDS011;62428;51.412;5.432;2023-04-03T08:49:37;2.40;;;0.50;;
74074;SDS011;62428;51.412;5.432;2023-04-03T08:52:13;3.65;;;0.57;;
74074;SDS011;62428;51.412;5.432;2023-04-03T09:00:23;2.35;;;0.47;;
74074;SDS011;62428;51.412;5.432;2023-04-03T09:02:51;1.55;;;0.32;;
74074;SDS011;62428;51.412;5.432;2023-04-03T09:05:31;1.70;;;0.30;;
74074;SDS011;62428;51.412;5.432;2023-04-03T09:08:29;1.98;;;0.30;;
74074;SDS011;62428;51.412;5.432;2023-04-03T09:14:03;1.13;;;0.40;;
74074;SDS011;62428;51.412;5.432;2023-04-03T09:24:37;2.03;;;0.30;;
74074;SDS011;62428;51.412;5.432;2023-04-03T09:27:04;2.63;;;0.20;;
74074;SDS011;62428;51.412;5.432;2023-04-03T09:29:32;1.25;;;0.22;;
74074;SDS011;62428;51.412;5.432;2023-04-03T09:32:12;1.92;;;0.30;;
74074;SDS011;62428;51.412;5.432;2023-04-03T09:34:46;1.30;;;0.20;;
74074;SDS011;62428;51.412;5.432;2023-04-03T09:37:33;2.38;;;0.52;;
74074;SDS011;62428;51.412;5.432;2023-04-03T09:40:01;3.03;;;0.30;;
74074;SDS011;62428;51.412;5.432;2023-04-03T09:42:27;1.90;;;0.30;;
74074;SDS011;62428;51.412;5.432;2023-04-03T09:44:59;4.95;;;0.80;;
74074;SDS011;62428;51.412;5.432;2023-04-03T09:52:39;1.75;;;0.25;;
74074;SDS011;62428;51.412;5.432;2023-04-03T09:55:18;1.65;;;0.20;;
74074;SDS011;62428;51.412;5.432;2023-04-03T09:57:51;0.77;;;0.20;;
74074;SDS011;62428;51.412;5.432;2023-04-03T10:00:22;0.93;;;0.28;;
74074;SDS011;62428;51.412;5.432;2023-04-03T10:02:50;1.30;;;0.20;;
74074;SDS011;62428;51.412;5.432;2023-04-03T10:05:39;0.60;;;0.10;;
74074;SDS011;62428;51.412;5.432;2023-04-03T10:10:37;4.32;;;0.30;;
74074;SDS011;62428;51.412;5.432;2023-04-03T10:13:05;1.48;;;0.40;;
74074;SDS011;62428;51.412;5.432;2023-04-03T10:15:44;1.43;;;0.30;;
74074;SDS011;62428;51.412;5.432;2023-04-03T10:21:10;3.38;;;0.38;;
74074;SDS011;62428;51.412;5.432;2023-04-03T10:23:45;2.00;;;0.17;;
74074;SDS011;62428;51.412;5.432;2023-04-03T10:26:31;1.17;;;0.30;;
74074;SDS011;62428;51.412;5.432;2023-04-03T10:34:58;1.98;;;0.30;;
74074;SDS011;62428;51.412;5.432;2023-04-03T10:40:30;1.35;;;0.20;;
74074;SDS011;62428;51.412;5.432;2023-04-03T10:43:06;0.90;;;0.20;;
74074;SDS011;62428;51.412;5.432;2023-04-03T10:56:42;0.80;;;0.30;;
74074;SDS011;62428;51.412;5.432;2023-04-03T11:02:26;2.05;;;0.28;;
74074;SDS011;62428;51.412;5.432;2023-04-03T11:04:56;1.95;;;0.40;;
74074;SDS011;62428;51.412;5.432;2023-04-03T11:07:32;1.17;;;0.28;;
74074;SDS011;62428;51.412;5.432;2023-04-03T11:10:10;1.50;;;0.37;;
74074;SDS011;62428;51.412;5.432;2023-04-03T11:15:43;2.13;;;0.43;;
74074;SDS011;62428;51.412;5.432;2023-04-03T11:18:17;1.73;;;0.30;;
74074;SDS011;62428;51.412;5.432;2023-04-03T11:20:56;2.05;;;0.30;;
74074;SDS011;62428;51.412;5.432;2023-04-03T11:23:34;2.43;;;0.40;;
74074;SDS011;62428;51.412;5.432;2023-04-03T11:26:22;1.38;;;0.25;;
74074;SDS011;62428;51.412;5.432;2023-04-03T11:28:55;1.20;;;0.38;;
74074;SDS011;62428;51.412;5.432;2023-04-03T11:31:35;2.22;;;0.50;;
74074;SDS011;62428;51.412;5.432;2023-04-03T11:37:04;0.93;;;0.30;;
74074;SDS011;62428;51.412;5.432;2023-04-03T11:39:37;1.77;;;0.30;;
74074;SDS011;62428;51.412;5.432;2023-04-03T11:42:14;1.45;;;0.40;;
74074;SDS011;62428;51.412;5.432;2023-04-03T11:44:42;1.85;;;0.47;;
74074;SDS011;62428;51.412;5.432;2023-04-03T11:47:11;2.10;;;0.33;;
74074;SDS011;62428;51.412;5.432;2023-04-03T11:50:03;2.45;;;0.30;;
74074;SDS011;62428;51.412;5.432;2023-04-03T12:08:44;1.05;;;0.50;;
74074;SDS011;62428;51.412;5.432;2023-04-03T12:19:24;1.10;;;0.57;;
74074;SDS011;62428;51.412;5.432;2023-04-03T12:24:28;1.88;;;0.40;;
74074;SDS011;62428;51.412;5.432;2023-04-03T12:46:43;2.50;;;0.40;;
74074;SDS011;62428;51.412;5.432;2023-04-03T12:49:29;1.52;;;0.30;;
74074;SDS011;62428;51.412;5.432;2023-04-03T12:52:19;0.95;;;0.30;;
74074;SDS011;62428;51.412;5.432;2023-04-03T12:54:51;0.80;;;0.30;;
74074;SDS011;62428;51.412;5.432;2023-04-03T12:57:19;1.83;;;0.40;;
74074;SDS011;62428;51.412;5.432;2023-04-03T12:59:46;2.75;;;0.30;;
74074;SDS011;62428;51.412;5.432;2023-04-03T13:02:23;3.70;;;0.57;;
74074;SDS011;62428;51.412;5.432;2023-04-03T13:04:55;2.80;;;0.60;;
74074;SDS011;62428;51.412;5.432;2023-04-03T13:10:19;3.55;;;0.40;;
74074;SDS011;62428;51.412;5.432;2023-04-03T13:12:51;1.02;;;0.60;;
74074;SDS011;62428;51.412;5.432;2023-04-03T13:17:55;2.70;;;0.47;;
74074;SDS011;62428;51.412;5.432;2023-04-03T13:20:26;2.33;;;0.30;;
74074;SDS011;62428;51.412;5.432;2023-04-03T13:23:00;2.30;;;0.52;;
74074;SDS011;62428;51.412;5.432;2023-04-03T13:25:30;1.73;;;0.32;;
74074;SDS011;62428;51.412;5.432;2023-04-03T13:27:58;1.08;;;0.40;;
74074;SDS011;62428;51.412;5.432;2023-04-03T13:33:33;2.20;;;0.50;;
74074;SDS011;62428;51.412;5.432;2023-04-03T13:36:21;3.28;;;0.57;;
74074;SDS011;62428;51.412;5.432;2023-04-03T13:39:06;1.63;;;0.40;;
74074;SDS011;62428;51.412;5.432;2023-04-03T13:41:53;2.78;;;0.50;;
74074;SDS011;62428;51.412;5.432;2023-04-03T13:46:46;4.87;;;0.53;;
74074;SDS011;62428;51.412;5.432;2023-04-03T13:49:31;1.27;;;0.40;;
74074;SDS011;62428;51.412;5.432;2023-04-03T13:52:00;2.03;;;0.45;;
74074;SDS011;62428;51.412;5.432;2023-04-03T13:54:42;5.25;;;0.77;;
74074;SDS011;62428;51.412;5.432;2023-04-03T13:57:15;2.80;;;0.53;;
74074;SDS011;62428;51.412;5.432;2023-04-03T13:59:41;2.78;;;0.60;;
74074;SDS011;62428;51.412;5.432;2023-04-03T14:04:45;2.53;;;0.60;;
74074;SDS011;62428;51.412;5.432;2023-04-03T14:07:13;3.60;;;0.82;;
74074;SDS011;62428;51.412;5.432;2023-04-03T14:09:40;1.40;;;0.52;;
74074;SDS011;62428;51.412;5.432;2023-04-03T14:12:15;2.77;;;0.50;;
74074;SDS011;62428;51.412;5.432;2023-04-03T14:14:43;3.83;;;0.60;;
74074;SDS011;62428;51.412;5.432;2023-04-03T14:17:13;2.22;;;0.82;;
74074;SDS011;62428;51.412;5.432;2023-04-03T14:19:44;2.60;;;0.60;;
74074;SDS011;62428;51.412;5.432;2023-04-03T14:22:24;1.60;;;0.60;;
74074;SDS011;62428;51.412;5.432;2023-04-03T14:24:51;1.13;;;0.47;;
74074;SDS011;62428;51.412;5.432;2023-04-03T14:27:36;3.05;;;0.73;;
74074;SDS011;62428;51.412;5.432;2023-04-03T14:30:06;3.00;;;0.90;;
74074;SDS011;62428;51.412;5.432;2023-04-03T14:32:34;3.37;;;0.90;;
74074;SDS011;62428;51.412;5.432;2023-04-03T14:35:00;2.38;;;0.63;;
74074;SDS011;62428;51.412;5.432;2023-04-03T14:37:29;3.28;;;0.82;;
74074;SDS011;62428;51.412;5.432;2023-04-03T14:39:56;2.05;;;0.80;;
74074;SDS011;62428;51.412;5.432;2023-04-03T14:42:25;1.50;;;0.87;;
74074;SDS011;62428;51.412;5.432;2023-04-03T14:44:53;2.25;;;0.98;;
74074;SDS011;62428;51.412;5.432;2023-04-03T14:47:19;3.83;;;1.00;;
74074;SDS011;62428;51.412;5.432;2023-04-03T14:49:47;2.88;;;0.93;;
74074;SDS011;62428;51.412;5.432;2023-04-03T14:52:20;2.00;;;0.90;;
74074;SDS011;62428;51.412;5.432;2023-04-03T14:54:48;3.73;;;0.70;;
74074;SDS011;62428;51.412;5.432;2023-04-03T14:57:15;5.40;;;0.93;;
74074;SDS011;62428;51.412;5.432;2023-04-03T14:59:42;6.13;;;1.00;;
74074;SDS011;62428;51.412;5.432;2023-04-03T15:02:11;3.90;;;0.90;;
74074;SDS011;62428;51.412;5.432;2023-04-03T15:04:51;2.45;;;0.93;;
74074;SDS011;62428;51.412;5.432;2023-04-03T15:07:17;1.57;;;0.73;;
74074;SDS011;62428;51.412;5.432;2023-04-03T15:09:43;3.13;;;0.82;;
74074;SDS011;62428;51.412;5.432;2023-04-03T15:12:09;2.77;;;0.50;;
74074;SDS011;62428;51.412;5.432;2023-04-03T15:14:34;1.77;;;0.60;;
74074;SDS011;62428;51.412;5.432;2023-04-03T15:17:00;3.37;;;0.83;;
74074;SDS011;62428;51.412;5.432;2023-04-03T15:19:25;4.23;;;1.00;;
74074;SDS011;62428;51.412;5.432;2023-04-03T15:21:51;1.95;;;0.57;;
74074;SDS011;62428;51.412;5.432;2023-04-03T15:24:16;2.37;;;0.50;;
74074;SDS011;62428;51.412;5.432;2023-04-03T15:26:41;4.27;;;0.50;;
74074;SDS011;62428;51.412;5.432;2023-04-03T15:29:07;3.10;;;0.80;;
74074;SDS011;62428;51.412;5.432;2023-04-03T15:31:32;4.10;;;0.60;;
74074;SDS011;62428;51.412;5.432;2023-04-03T15:33:58;2.97;;;0.67;;
74074;SDS011;62428;51.412;5.432;2023-04-03T15:36:23;3.43;;;0.80;;
74074;SDS011;62428;51.412;5.432;2023-04-03T15:38:48;4.20;;;0.80;;
74074;SDS011;62428;51.412;5.432;2023-04-03T15:41:14;2.03;;;0.65;;
74074;SDS011;62428;51.412;5.432;2023-04-03T15:43:40;2.57;;;0.77;;
74074;SDS011;62428;51.412;5.432;2023-04-03T15:46:05;3.83;;;0.80;;
74074;SDS011;62428;51.412;5.432;2023-04-03T15:48:30;4.70;;;0.60;;
74074;SDS011;62428;51.412;5.432;2023-04-03T15:50:56;2.30;;;0.50;;
74074;SDS011;62428;51.412;5.432;2023-04-03T15:53:22;2.67;;;0.53;;
74074;SDS011;62428;51.412;5.432;2023-04-03T15:55:47;1.55;;;0.60;;
74074;SDS011;62428;51.412;5.432;2023-04-03T15:58:12;2.70;;;0.70;;
74074;SDS011;62428;51.412;5.432;2023-04-03T16:00:38;5.07;;;0.80;;
74074;SDS011;62428;51.412;5.432;2023-04-03T16:03:15;4.40;;;0.60;;
74074;SDS011;62428;51.412;5.432;2023-04-03T16:05:41;3.53;;;0.65;;
74074;SDS011;62428;51.412;5.432;2023-04-03T16:08:07;1.90;;;0.50;;
74074;SDS011;62428;51.412;5.432;2023-04-03T16:10:34;2.17;;;0.50;;
74074;SDS011;62428;51.412;5.432;2023-04-03T16:13:01;2.63;;;0.40;;
74074;SDS011;62428;51.412;5.432;2023-04-03T16:15:26;3.47;;;0.60;;
74074;SDS011;62428;51.412;5.432;2023-04-03T16:17:52;2.42;;;0.50;;
74074;SDS011;62428;51.412;5.432;2023-04-03T16:20:18;2.88;;;0.52;;
74074;SDS011;62428;51.412;5.432;2023-04-03T16:22:44;2.67;;;0.60;;
74074;SDS011;62428;51.412;5.432;2023-04-03T16:25:10;4.82;;;0.70;;
74074;SDS011;62428;51.412;5.432;2023-04-03T16:27:36;2.58;;;0.70;;
74074;SDS011;62428;51.412;5.432;2023-04-03T16:30:03;1.10;;;0.40;;
74074;SDS011;62428;51.412;5.432;2023-04-03T16:32:29;4.33;;;0.97;;
74074;SDS011;62428;51.412;5.432;2023-04-03T16:34:56;6.13;;;0.70;;
74074;SDS011;62428;51.412;5.432;2023-04-03T16:37:22;3.70;;;0.90;;
74074;SDS011;62428;51.412;5.432;2023-04-03T16:39:48;3.13;;;0.50;;
74074;SDS011;62428;51.412;5.432;2023-04-03T16:42:13;2.22;;;0.52;;
74074;SDS011;62428;51.412;5.432;2023-04-03T16:44:39;2.53;;;0.55;;
74074;SDS011;62428;51.412;5.432;2023-04-03T16:47:05;4.10;;;0.30;;
74074;SDS011;62428;51.412;5.432;2023-04-03T16:49:31;1.95;;;0.60;;
74074;SDS011;62428;51.412;5.432;2023-04-03T16:52:00;5.30;;;0.73;;
74074;SDS011;62428;51.412;5.432;2023-04-03T16:54:27;1.50;;;0.40;;
74074;SDS011;62428;51.412;5.432;2023-04-03T16:56:53;3.67;;;0.60;;
74074;SDS011;62428;51.412;5.432;2023-04-03T16:59:18;4.15;;;0.50;;
74074;SDS011;62428;51.412;5.432;2023-04-03T17:01:43;3.92;;;0.60;;
74074;SDS011;62428;51.412;5.432;2023-04-03T17:04:09;4.10;;;0.50;;
74074;SDS011;62428;51.412;5.432;2023-04-03T17:06:34;3.90;;;0.73;;
74074;SDS011;62428;51.412;5.432;2023-04-03T17:09:00;2.17;;;0.50;;
74074;SDS011;62428;51.412;5.432;2023-04-03T17:11:26;2.97;;;0.50;;